Time;durP1;ratioP1;P1;durP2;ratioP2;P2;SDS_P1;SDS_P2;PMS_P1;PMS_P2;Temp;Humidity;BMP_temperature;BMP_pressure;BME280_temperature;BME280_humidity;BME280_pressure;Samples;Min_cycle;Max_cycle;Signal;HPM_P1;HPM_P2
2021/03/28 04:11:34;;;;;;;46.97;24.52;;;4.60;99.90;;;;;;5088588;28;20083;-67
2021/03/28 04:14:06;;;;;;;47.75;23.50;;;4.60;99.90;;;;;;5094313;28;20032;-67
2021/03/28 04:16:50;;;;;;;46.47;23.30;;;4.60;99.90;;;;;;5094380;28;20072;-67
2021/03/28 04:19:40;;;;;;;46.42;23.52;;;4.50;99.90;;;;;;5081297;28;20035;-67
2021/03/28 04:22:34;;;;;;;45.97;22.67;;;4.50;99.90;;;;;;5094342;28;20020;-67
2021/03/28 04:25:21;;;;;;;46.72;24.42;;;4.60;99.90;;;;;;5094366;28;20028;-67
2021/03/28 04:28:11;;;;;;;47.38;24.35;;;4.60;99.90;;;;;;5094198;28;20077;-67
2021/03/28 04:30:55;;;;;;;45.60;22.60;;;4.50;99.90;;;;;;5094051;28;20051;-65
2021/03/28 04:33:42;;;;;;;50.50;24.80;;;4.50;99.90;;;;;;5094094;28;20425;-69
2021/03/28 04:36:14;;;;;;;44.25;24.38;;;4.50;99.90;;;;;;5088496;28;20514;-68
2021/03/28 04:38:55;;;;;;;51.50;26.00;;;4.50;99.90;;;;;;5083923;28;20410;-69
2021/03/28 04:41:32;;;;;;;15.43;4.57;;;4.40;99.90;;;;;;5091873;28;20111;-72
2021/03/28 04:44:22;;;;;;;43.22;20.42;;;5.20;99.90;;;;;;5093685;28;20020;-71
2021/03/28 04:46:47;;;;;;;42.05;21.73;;;6.40;99.90;;;;;;5086564;28;20039;-74
2021/03/28 04:49:50;;;;;;;42.15;21.27;;;6.20;99.90;;;;;;5093118;28;20016;-76
2021/03/28 04:52:50;;;;;;;45.33;22.73;;;5.80;99.90;;;;;;5072997;28;20418;-74
2021/03/28 04:55:45;;;;;;;43.70;22.27;;;5.50;99.90;;;;;;5086805;28;20502;-71
2021/03/28 04:58:38;;;;;;;45.47;22.63;;;5.30;99.90;;;;;;5090701;28;20047;-71
2021/03/28 05:01:23;;;;;;;45.10;23.52;;;5.10;99.90;;;;;;5088879;28;20031;-70
2021/03/28 05:04:10;;;;;;;45.00;23.98;;;5.00;99.90;;;;;;5090513;28;20633;-70
2021/03/28 05:06:48;;;;;;;50.33;25.80;;;4.90;99.90;;;;;;5090967;28;20047;-71
2021/03/28 05:09:36;;;;;;;50.10;24.98;;;4.80;99.90;;;;;;5091533;28;20051;-71
2021/03/28 05:12:04;;;;;;;46.45;23.33;;;4.80;99.90;;;;;;5092383;28;20043;-71
2021/03/28 05:14:58;;;;;;;51.33;26.38;;;4.70;99.90;;;;;;5089965;28;20043;-71
2021/03/28 05:17:55;;;;;;;50.13;25.20;;;4.50;99.90;;;;;;5083623;28;20111;-70
2021/03/28 05:20:39;;;;;;;48.17;24.77;;;4.50;99.90;;;;;;5085527;28;20016;-71
2021/03/28 05:23:55;;;;;;;45.70;25.10;;;4.50;99.90;;;;;;5087069;28;20494;-71
2021/03/28 05:26:32;;;;;;;52.60;26.70;;;4.40;99.90;;;;;;5055564;28;20040;-70
2021/03/28 05:29:14;;;;;;;50.65;25.58;;;4.40;99.90;;;;;;5092820;28;20063;-71
2021/03/28 05:32:09;;;;;;;48.30;25.70;;;4.40;99.90;;;;;;5083365;28;20032;-68
2021/03/28 05:35:01;;;;;;;48.60;25.45;;;4.40;99.90;;;;;;5092781;28;20036;-71
2021/03/28 05:37:57;;;;;;;52.00;26.15;;;4.60;99.90;;;;;;5092433;28;20020;-71
2021/03/28 05:40:32;;;;;;;50.50;25.40;;;4.60;99.90;;;;;;5085245;28;20028;-71
2021/03/28 05:43:36;;;;;;;52.63;26.60;;;4.60;99.90;;;;;;5092365;28;20468;-71
2021/03/28 05:46:39;;;;;;;52.47;25.73;;;4.50;99.90;;;;;;5092771;28;20348;-71
2021/03/28 05:49:23;;;;;;;48.45;24.45;;;4.50;99.90;;;;;;5086601;28;20601;-71
2021/03/28 05:52:13;;;;;;;52.80;26.48;;;4.50;99.90;;;;;;5092484;28;20030;-71
2021/03/28 05:55:09;;;;;;;56.90;26.02;;;4.60;99.90;;;;;;5092187;28;20032;-71
2021/03/28 05:58:04;;;;;;;53.80;26.10;;;4.60;99.90;;;;;;5072645;28;20028;-71
2021/03/28 06:00:59;;;;;;;55.35;25.50;;;4.60;99.90;;;;;;5081606;28;20051;-71
2021/03/28 06:03:52;;;;;;;51.50;25.95;;;4.70;99.90;;;;;;5019813;28;20049;-71
2021/03/28 06:06:52;;;;;;;57.15;27.40;;;4.60;99.90;;;;;;5073686;28;20422;-71
2021/03/28 06:09:18;;;;;;;49.90;26.70;;;4.60;99.90;;;;;;5092254;28;20163;-77
2021/03/28 06:12:21;;;;;;;52.92;26.77;;;4.60;99.90;;;;;;5091599;28;20132;-78
2021/03/28 06:15:11;;;;;;;42.97;23.25;;;4.60;99.90;;;;;;5087738;28;20394;-77
2021/03/28 06:17:52;;;;;;;46.78;23.88;;;5.20;99.90;;;;;;5078559;28;20021;-76
2021/03/28 06:20:30;;;;;;;54.38;26.95;;;5.70;99.90;;;;;;5088826;28;20458;-69
2021/03/28 06:23:13;;;;;;;57.30;28.13;;;5.60;99.90;;;;;;5088938;28;20020;-68
2021/03/28 06:26:16;;;;;;;55.10;27.38;;;5.30;99.90;;;;;;5091103;28;20059;-69
2021/03/28 06:29:27;;;;;;;53.63;26.17;;;5.00;99.90;;;;;;5083841;28;20020;-68
2021/03/28 06:32:13;;;;;;;57.42;27.15;;;4.90;99.90;;;;;;5081572;28;20375;-68
2021/03/28 06:34:58;;;;;;;54.53;27.33;;;4.80;99.90;;;;;;5081353;28;20043;-71
2021/03/28 06:37:51;;;;;;;54.75;26.92;;;4.80;99.90;;;;;;5091409;28;20024;-71
2021/03/28 06:40:44;;;;;;;60.88;29.33;;;4.80;99.90;;;;;;5083136;28;20030;-70
2021/03/28 06:43:42;;;;;;;58.42;28.23;;;4.70;99.90;;;;;;5088100;28;20411;-78
2021/03/28 06:46:13;;;;;;;61.75;27.65;;;4.70;99.90;;;;;;5038485;28;20040;-74
2021/03/28 06:49:04;;;;;;;56.00;28.35;;;4.70;99.90;;;;;;5086407;28;20419;-75
2021/03/28 06:51:47;;;;;;;59.08;28.60;;;4.70;99.90;;;;;;5085877;28;20028;-75
2021/03/28 06:54:41;;;;;;;60.25;29.30;;;4.80;99.90;;;;;;5091021;28;20040;-75
2021/03/28 06:57:19;;;;;;;55.38;27.98;;;4.80;99.90;;;;;;5087501;28;20020;-70
2021/03/28 07:00:09;;;;;;;55.85;29.33;;;4.80;99.90;;;;;;5090384;28;20038;-69
2021/03/28 07:02:50;;;;;;;57.90;28.75;;;4.90;99.90;;;;;;5090814;28;20020;-70
2021/03/28 07:05:25;;;;;;;;;;;4.90;99.90;;;;;;5092468;28;20060;-69
2021/03/28 07:07:57;;;;;;;56.35;27.90;;;4.90;99.90;;;;;;5091674;28;19958;-69
2021/03/28 07:10:30;;;;;;;58.45;29.95;;;4.90;99.90;;;;;;5092222;28;20024;-69
2021/03/28 07:13:20;;;;;;;63.38;31.58;;;4.90;99.90;;;;;;5091876;28;20036;-70
2021/03/28 07:16:07;;;;;;;67.80;32.88;;;4.80;99.90;;;;;;5091315;28;20032;-70
2021/03/28 07:19:07;;;;;;;69.38;31.52;;;4.80;99.90;;;;;;5090988;28;20020;-73
2021/03/28 07:21:45;;;;;;;71.67;30.67;;;4.80;99.90;;;;;;5090102;28;20103;-73
2021/03/28 07:24:55;;;;;;;62.40;30.63;;;4.80;99.90;;;;;;5091933;28;20020;-73
2021/03/28 07:27:30;;;;;;;61.45;30.73;;;4.80;99.90;;;;;;5067367;28;20473;-73
2021/03/28 07:30:32;;;;;;;68.40;31.00;;;4.90;99.90;;;;;;5094860;28;20028;-73
2021/03/28 07:33:26;;;;;;;63.33;29.80;;;4.90;99.90;;;;;;5095069;28;20032;-73
2021/03/28 07:36:03;;;;;;;70.70;32.45;;;4.90;99.90;;;;;;5095487;28;20027;-72
2021/03/28 07:38:50;;;;;;;62.00;30.77;;;4.90;99.90;;;;;;5095369;28;20028;-73
2021/03/28 07:41:46;;;;;;;60.50;31.05;;;4.90;99.90;;;;;;5095558;28;20024;-73
2021/03/28 07:44:39;;;;;;;68.63;31.00;;;5.00;99.90;;;;;;5095265;28;20115;-73
2021/03/28 07:47:45;;;;;;;73.75;32.85;;;5.10;99.90;;;;;;5095161;28;20028;-73
2021/03/28 07:50:39;;;;;;;73.95;32.15;;;5.10;99.90;;;;;;5095214;28;20368;-74
2021/03/28 07:53:30;;;;;;;68.38;31.42;;;5.20;99.90;;;;;;5081525;28;20124;-75
2021/03/28 07:56:14;;;;;;;63.72;30.90;;;5.30;99.90;;;;;;5094822;28;20031;-72
2021/03/28 07:59:30;;;;;;;64.85;30.30;;;5.30;99.90;;;;;;5094597;28;20028;-73
2021/03/28 08:02:53;;;;;;;64.40;29.65;;;5.30;99.90;;;;;;5032050;28;20033;-72
2021/03/28 08:05:55;;;;;;;66.07;30.35;;;5.30;99.90;;;;;;5032240;28;20393;-73
2021/03/28 08:08:58;;;;;;;57.15;27.85;;;5.20;99.90;;;;;;5032260;28;20408;-73
2021/03/28 08:11:23;;;;;;;58.85;27.95;;;5.10;99.90;;;;;;5094641;28;20415;-72
2021/03/28 08:14:30;;;;;;;66.68;30.02;;;5.10;99.90;;;;;;5094695;28;20032;-70
2021/03/28 08:17:16;;;;;;;44.33;23.05;;;5.10;99.90;;;;;;5059591;28;20090;-72
2021/03/28 08:20:20;;;;;;;56.38;27.70;;;5.20;99.90;;;;;;5094428;28;20480;-73
2021/03/28 08:23:06;;;;;;;59.45;28.85;;;5.70;99.90;;;;;;5094345;28;20107;-72
2021/03/28 08:25:51;;;;;;;64.72;30.30;;;5.70;99.90;;;;;;5094386;28;20036;-72
2021/03/28 08:28:37;;;;;;;61.05;29.85;;;5.70;99.90;;;;;;5094784;28;20103;-72
2021/03/28 08:31:24;;;;;;;62.05;30.25;;;5.70;99.90;;;;;;5094574;28;20028;-73
2021/03/28 08:34:21;;;;;;;50.30;27.55;;;5.70;99.90;;;;;;5094412;28;20032;-72
2021/03/28 08:37:13;;;;;;;46.65;21.40;;;5.70;99.90;;;;;;5089755;28;20032;-80
2021/03/28 08:40:12;;;;;;;39.30;18.25;;;5.90;99.90;;;;;;5064273;28;20028;-74
2021/03/28 08:42:51;;;;;;;49.28;26.00;;;6.40;99.90;;;;;;5093819;28;20074;-74
2021/03/28 08:45:42;;;;;;;49.53;25.80;;;6.80;99.90;;;;;;5093566;28;20027;-74
2021/03/28 08:48:43;;;;;;;49.42;25.83;;;6.60;99.90;;;;;;5092218;28;20024;-74
2021/03/28 08:51:17;;;;;;;54.78;28.10;;;6.40;99.90;;;;;;5092005;28;20020;-74
2021/03/28 08:54:01;;;;;;;50.83;26.50;;;6.30;99.90;;;;;;5091488;28;20057;-74
2021/03/28 08:56:31;;;;;;;59.90;28.08;;;6.20;99.90;;;;;;5092227;28;20091;-74
2021/03/28 08:59:15;;;;;;;55.58;27.52;;;6.20;99.90;;;;;;5093599;28;20429;-74
2021/03/28 09:01:49;;;;;;;54.53;27.42;;;6.20;99.90;;;;;;5090702;28;20471;-74
2021/03/28 09:04:32;;;;;;;56.20;28.42;;;6.10;99.90;;;;;;5093382;28;20506;-74
2021/03/28 09:07:03;;;;;;;54.80;28.27;;;6.20;99.90;;;;;;5093230;28;20499;-74
2021/03/28 09:09:38;;;;;;;58.90;28.38;;;6.20;99.90;;;;;;5093885;28;20035;-75
2021/03/28 09:12:16;;;;;;;56.25;29.45;;;6.20;99.90;;;;;;5093241;28;20052;-75
2021/03/28 09:14:48;;;;;;;57.47;28.58;;;6.20;99.90;;;;;;5093283;28;20028;-75
2021/03/28 09:17:40;;;;;;;52.72;26.52;;;6.20;99.90;;;;;;5093397;28;20031;-75
2021/03/28 09:20:34;;;;;;;51.33;25.65;;;6.20;99.90;;;;;;5095108;28;20032;-74
2021/03/28 09:23:05;;;;;;;50.83;24.48;;;6.20;99.90;;;;;;5093465;28;20032;-74
2021/03/28 09:25:54;;;;;;;48.38;23.50;;;6.20;99.90;;;;;;5093697;28;20472;-74
2021/03/28 09:28:57;;;;;;;38.85;21.27;;;6.30;99.90;;;;;;5093614;28;20028;-74
2021/03/28 09:31:38;;;;;;;47.55;24.05;;;6.30;99.90;;;;;;5093008;28;20022;-75
2021/03/28 09:34:25;;;;;;;44.83;22.85;;;6.30;99.90;;;;;;5091581;28;20070;-75
2021/03/28 09:36:56;;;;;;;46.95;23.75;;;6.30;99.90;;;;;;5093342;28;20016;-75
2021/03/28 09:39:49;;;;;;;49.50;23.95;;;6.30;99.90;;;;;;5093389;28;20024;-76
2021/03/28 09:42:21;;;;;;;44.20;22.85;;;6.20;99.90;;;;;;5046518;28;20064;-74
2021/03/28 09:45:14;;;;;;;43.45;23.95;;;6.20;99.90;;;;;;5092904;28;20463;-74
2021/03/28 09:47:48;;;;;;;48.63;25.27;;;6.30;99.90;;;;;;5092717;28;20487;-73
2021/03/28 09:50:36;;;;;;;50.33;24.55;;;6.30;99.90;;;;;;5093299;28;20028;-74
2021/03/28 09:53:20;;;;;;;48.15;24.92;;;6.30;99.90;;;;;;5092928;28;20035;-74
2021/03/28 09:55:57;;;;;;;52.20;25.80;;;6.30;99.90;;;;;;5092817;28;20040;-74
2021/03/28 09:58:37;;;;;;;46.53;24.48;;;6.40;99.90;;;;;;5092676;28;20028;-70
2021/03/28 10:01:24;;;;;;;50.03;25.17;;;6.40;99.90;;;;;;5093060;28;20115;-73
2021/03/28 10:04:14;;;;;;;49.00;25.73;;;6.40;99.90;;;;;;5092845;28;20031;-73
2021/03/28 10:06:42;;;;;;;47.10;24.00;;;6.40;99.90;;;;;;5092665;28;20025;-73
2021/03/28 10:09:19;;;;;;;46.42;24.75;;;6.50;99.90;;;;;;5092564;28;20115;-74
2021/03/28 10:11:56;;;;;;;48.53;25.33;;;6.50;99.90;;;;;;5092353;28;20048;-74
2021/03/28 10:14:22;;;;;;;50.17;23.27;;;6.50;99.90;;;;;;5092388;28;20043;-74
2021/03/28 10:17:25;;;;;;;49.83;23.40;;;6.50;99.90;;;;;;5092329;28;20016;-74
2021/03/28 10:20:02;;;;;;;43.63;23.40;;;6.50;99.90;;;;;;5092255;28;20056;-74
2021/03/28 10:23:12;;;;;;;45.63;21.90;;;6.60;99.90;;;;;;5092613;28;20020;-75
2021/03/28 10:25:50;;;;;;;41.05;22.63;;;6.60;99.90;;;;;;5029754;28;20030;-74
2021/03/28 10:28:35;;;;;;;42.25;21.38;;;6.60;99.90;;;;;;5084702;28;20028;-75
2021/03/28 10:31:26;;;;;;;42.33;21.38;;;6.70;99.90;;;;;;5092069;28;20028;-74
2021/03/28 10:34:11;;;;;;;47.67;23.17;;;6.70;99.90;;;;;;5092338;28;20450;-74
2021/03/28 10:36:58;;;;;;;40.33;21.35;;;6.70;99.90;;;;;;5092295;28;20020;-74
2021/03/28 10:39:55;;;;;;;44.97;22.65;;;6.70;99.90;;;;;;5092006;28;20506;-73
2021/03/28 10:42:54;;;;;;;43.35;22.25;;;6.70;99.90;;;;;;5091435;28;20494;-73
2021/03/28 10:45:32;;;;;;;41.00;22.73;;;6.70;99.90;;;;;;5090293;28;20098;-74
2021/03/28 10:48:19;;;;;;;37.88;20.60;;;6.80;99.90;;;;;;5091986;28;20433;-74
2021/03/28 10:51:04;;;;;;;44.55;21.42;;;6.80;99.90;;;;;;5091672;28;20099;-73
2021/03/28 10:53:41;;;;;;;35.65;20.15;;;6.80;99.90;;;;;;5090184;28;20050;-74
2021/03/28 10:56:19;;;;;;;40.15;22.50;;;6.80;99.90;;;;;;5089320;28;20088;-73
2021/03/28 10:58:56;;;;;;;45.45;21.33;;;6.80;99.90;;;;;;5091854;28;20519;-75
2021/03/28 11:01:50;;;;;;;44.72;22.88;;;6.80;99.90;;;;;;5091864;28;20110;-73
2021/03/28 11:04:42;;;;;;;38.80;20.85;;;6.80;99.90;;;;;;5096148;28;20028;-73
2021/03/28 11:07:44;;;;;;;42.58;22.10;;;6.90;99.90;;;;;;5096167;28;20458;-73
2021/03/28 11:10:51;;;;;;;42.00;20.25;;;6.90;99.90;;;;;;5071932;28;20040;-74
2021/03/28 11:13:42;;;;;;;38.15;20.85;;;7.00;99.90;;;;;;5093917;28;20491;-73
2021/03/28 11:16:22;;;;;;;;;;;6.90;99.90;;;;;;5096313;28;20503;-72
2021/03/28 11:19:15;;;;;;;40.83;20.42;;;6.90;99.90;;;;;;5096097;28;19904;-75
2021/03/28 11:22:23;;;;;;;44.92;20.85;;;6.90;99.90;;;;;;5096066;28;20051;-73
2021/03/28 11:24:55;;;;;;;45.28;21.88;;;6.90;99.90;;;;;;5095702;28;20464;-73
2021/03/28 11:27:32;;;;;;;40.15;20.88;;;6.90;99.90;;;;;;5095344;28;20028;-73
2021/03/28 11:30:23;;;;;;;41.50;21.02;;;6.80;99.90;;;;;;5095552;28;20024;-74
2021/03/28 11:33:29;;;;;;;38.90;20.55;;;6.80;99.90;;;;;;5095296;28;20118;-74
2021/03/28 11:35:55;;;;;;;20.25;9.20;;;6.80;99.90;;;;;;5086871;28;20503;-74
2021/03/28 11:38:20;;;;;;;36.38;20.20;;;7.60;99.90;;;;;;5095336;28;20076;-74
2021/03/28 11:41:10;;;;;;;41.25;20.42;;;8.40;99.90;;;;;;5095240;28;20023;-74
2021/03/28 11:43:38;;;;;;;37.33;19.27;;;8.00;99.90;;;;;;5095701;28;20111;-74
2021/03/28 11:46:04;;;;;;;41.35;20.25;;;7.60;99.90;;;;;;5095177;28;20031;-73
2021/03/28 11:48:35;;;;;;;34.83;19.05;;;7.40;99.90;;;;;;5095199;28;20016;-74
2021/03/28 11:51:22;;;;;;;35.53;18.80;;;7.20;99.90;;;;;;5095096;28;20149;-74
2021/03/28 11:54:15;;;;;;;37.22;19.05;;;7.10;99.90;;;;;;5095053;28;20063;-73
2021/03/28 11:56:44;;;;;;;36.85;19.60;;;7.00;99.90;;;;;;5095484;28;20030;-73
2021/03/28 11:59:34;;;;;;;35.88;19.13;;;6.90;99.90;;;;;;5094944;28;20054;-74
2021/03/28 12:02:10;;;;;;;39.53;19.38;;;6.80;99.90;;;;;;5094297;28;20020;-73
2021/03/28 12:04:39;;;;;;;17.48;9.50;;;6.80;99.90;;;;;;5095005;28;20032;-69
2021/03/28 12:07:36;;;;;;;40.70;20.80;;;6.90;99.90;;;;;;5094730;28;20383;-72
2021/03/28 12:10:04;;;;;;;42.97;20.75;;;7.60;99.90;;;;;;5094703;28;20036;-72
2021/03/28 12:12:52;;;;;;;39.67;19.35;;;7.50;99.90;;;;;;5094628;28;20040;-73
2021/03/28 12:15:42;;;;;;;40.58;20.33;;;7.20;99.90;;;;;;5094154;28;20394;-72
2021/03/28 12:18:24;;;;;;;37.33;20.58;;;7.00;99.90;;;;;;5094724;28;20027;-68
2021/03/28 12:20:59;;;;;;;41.22;20.88;;;6.90;99.90;;;;;;5094361;28;20153;-68
2021/03/28 12:23:30;;;;;;;39.67;20.27;;;6.90;99.90;;;;;;5091992;28;20020;-71
2021/03/28 12:26:16;;;;;;;37.63;20.23;;;6.90;99.90;;;;;;5093535;28;20043;-70
2021/03/28 12:28:45;;;;;;;39.70;20.63;;;6.90;99.90;;;;;;5093500;28;20024;-69
2021/03/28 12:31:31;;;;;;;38.92;21.17;;;6.90;99.90;;;;;;5093866;28;20023;-67
2021/03/28 12:34:17;;;;;;;44.17;20.83;;;6.90;99.90;;;;;;5094395;28;20433;-67
2021/03/28 12:36:48;;;;;;;38.28;20.40;;;6.90;99.90;;;;;;5094714;28;20024;-67
2021/03/28 12:39:18;;;;;;;40.53;21.25;;;6.90;99.90;;;;;;5094356;28;20600;-67
2021/03/28 12:42:03;;;;;;;41.33;20.05;;;6.90;99.90;;;;;;5094349;28;20103;-67
2021/03/28 12:44:35;;;;;;;37.17;20.27;;;6.90;99.90;;;;;;5094463;28;20028;-67
2021/03/28 12:47:19;;;;;;;37.45;19.73;;;6.90;99.90;;;;;;5094449;28;20475;-67
2021/03/28 12:50:05;;;;;;;38.13;19.60;;;6.90;99.90;;;;;;5094199;28;20028;-67
2021/03/28 12:53:05;;;;;;;45.33;21.35;;;6.90;99.90;;;;;;5094095;28;20119;-67
2021/03/28 12:55:44;;;;;;;42.78;21.10;;;6.80;99.90;;;;;;5094117;28;20032;-67
2021/03/28 12:58:09;;;;;;;41.55;20.42;;;6.80;99.90;;;;;;5094155;28;20037;-67
2021/03/28 13:00:38;;;;;;;44.47;21.40;;;6.80;99.90;;;;;;5094079;28;20620;-67
2021/03/28 13:03:28;;;;;;;44.03;22.85;;;6.80;99.90;;;;;;5093595;28;20165;-67
2021/03/28 13:06:03;;;;;;;44.15;23.40;;;6.80;99.90;;;;;;5093935;28;20036;-67
2021/03/28 13:09:19;;;;;;;49.72;23.75;;;6.80;99.90;;;;;;5093703;28;20035;-67
2021/03/28 13:11:49;;;;;;;49.78;25.75;;;6.80;99.90;;;;;;5075904;28;20054;-67
2021/03/28 13:14:42;;;;;;;50.50;26.30;;;6.70;99.90;;;;;;5093192;28;20043;-67
2021/03/28 13:17:14;;;;;;;60.22;26.52;;;6.70;99.90;;;;;;5087885;28;20028;-67
2021/03/28 13:19:42;;;;;;;48.42;25.50;;;6.70;99.90;;;;;;5093041;28;20024;-68
2021/03/28 13:22:38;;;;;;;54.20;26.10;;;6.70;99.90;;;;;;5093367;28;20016;-68
2021/03/28 13:25:15;;;;;;;49.88;25.20;;;6.70;99.90;;;;;;5093296;28;20032;-69
2021/03/28 13:27:42;;;;;;;52.20;27.50;;;6.60;99.90;;;;;;5092927;28;20103;-68
2021/03/28 13:30:22;;;;;;;52.55;27.33;;;6.60;99.90;;;;;;5093306;28;20078;-68
2021/03/28 13:32:50;;;;;;;55.97;28.98;;;6.60;99.90;;;;;;5093097;28;20032;-68
2021/03/28 13:35:24;;;;;;;61.08;29.42;;;6.70;99.90;;;;;;5093499;28;20043;-68
2021/03/28 13:37:53;;;;;;;55.50;27.17;;;6.70;99.90;;;;;;5090911;28;20020;-68
2021/03/28 13:40:27;;;;;;;50.97;28.17;;;6.60;99.90;;;;;;5091183;28;20028;-68
2021/03/28 13:42:55;;;;;;;48.60;27.17;;;6.70;99.90;;;;;;5092296;28;20020;-69
2021/03/28 13:45:35;;;;;;;55.40;27.63;;;6.70;99.90;;;;;;5092279;28;20028;-70
2021/03/28 13:48:06;;;;;;;54.88;28.23;;;6.70;99.90;;;;;;5092683;28;20024;-69
2021/03/28 13:51:13;;;;;;;49.88;26.70;;;6.70;99.90;;;;;;5092773;28;20058;-69
2021/03/28 13:53:53;;;;;;;49.85;25.98;;;6.70;99.90;;;;;;4990448;28;20494;-68
2021/03/28 13:56:26;;;;;;;;;;;6.70;99.90;;;;;;5085870;28;20040;-69
2021/03/28 13:59:06;;;;;;;48.88;26.15;;;6.70;99.90;;;;;;5092247;28;19904;-69
2021/03/28 14:01:41;;;;;;;50.95;27.50;;;6.70;99.90;;;;;;5091530;28;20107;-70
2021/03/28 14:04:22;;;;;;;52.40;26.88;;;6.80;99.90;;;;;;5092065;28;20035;-70
2021/03/28 14:07:13;;;;;;;51.03;27.17;;;6.80;99.90;;;;;;5092315;28;20110;-69
2021/03/28 14:09:43;;;;;;;42.45;25.13;;;6.80;99.90;;;;;;5091162;28;20020;-69
2021/03/28 14:12:37;;;;;;;52.05;27.45;;;6.80;99.90;;;;;;5091548;28;20114;-69
2021/03/28 14:15:15;;;;;;;49.42;27.38;;;6.80;99.90;;;;;;5092064;28;20094;-69
2021/03/28 14:17:42;;;;;;;47.47;27.23;;;6.80;99.90;;;;;;5087422;28;20020;-70
2021/03/28 14:20:20;;;;;;;49.10;25.95;;;6.80;99.90;;;;;;5073494;28;21363;-70
2021/03/28 14:22:49;;;;;;;48.03;26.58;;;6.80;99.90;;;;;;5090625;28;20486;-69
2021/03/28 14:25:29;;;;;;;44.92;25.30;;;6.80;99.90;;;;;;5088990;28;20028;-70
2021/03/28 14:27:55;;;;;;;49.05;26.95;;;6.80;99.90;;;;;;5089320;28;20024;-70
2021/03/28 14:30:40;;;;;;;50.45;28.27;;;6.80;99.90;;;;;;5092075;28;20483;-69
2021/03/28 14:33:20;;;;;;;42.95;24.58;;;6.80;99.90;;;;;;5088650;28;20039;-69
2021/03/28 14:35:58;;;;;;;49.67;27.42;;;6.70;99.90;;;;;;5088725;28;20026;-69
2021/03/28 14:38:48;;;;;;;46.25;25.85;;;6.70;99.90;;;;;;5088265;28;20036;-69
2021/03/28 14:42:01;;;;;;;44.35;26.10;;;6.70;99.90;;;;;;5089876;28;20027;-71
2021/03/28 14:44:39;;;;;;;43.67;24.88;;;6.70;99.90;;;;;;5070812;28;20041;-72
2021/03/28 14:47:42;;;;;;;45.53;25.30;;;6.70;99.90;;;;;;5091718;28;20031;-70
2021/03/28 14:50:35;;;;;;;41.90;24.92;;;6.80;99.90;;;;;;5091709;28;20403;-69
2021/03/28 14:53:39;;;;;;;45.47;24.80;;;6.80;99.90;;;;;;5091678;28;20028;-70
2021/03/28 14:56:26;;;;;;;44.30;23.30;;;6.80;99.90;;;;;;5067721;28;20040;-69
2021/03/28 14:59:13;;;;;;;43.67;24.08;;;6.70;99.90;;;;;;5091852;28;20383;-70
2021/03/28 15:01:45;;;;;;;40.83;23.35;;;6.70;99.90;;;;;;5091439;28;20028;-69
2021/03/28 15:04:41;;;;;;;43.90;23.73;;;6.70;99.90;;;;;;5091761;28;20352;-69
2021/03/28 15:07:19;;;;;;;40.78;21.70;;;6.70;99.90;;;;;;5091791;28;20024;-69
2021/03/28 15:10:11;;;;;;;40.88;22.55;;;6.70;99.90;;;;;;5091393;28;20033;-69
2021/03/28 15:12:53;;;;;;;43.97;23.52;;;6.70;99.90;;;;;;5091251;28;20570;-69
2021/03/28 15:15:30;;;;;;;39.28;21.30;;;6.70;99.90;;;;;;5091482;28;20040;-70
2021/03/28 15:18:26;;;;;;;40.05;21.77;;;6.70;99.90;;;;;;5091683;28;20107;-70
2021/03/28 15:21:03;;;;;;;41.13;21.60;;;6.70;99.90;;;;;;5091172;28;20103;-69
2021/03/28 15:23:41;;;;;;;41.97;22.27;;;6.70;99.90;;;;;;5071138;28;20039;-69
2021/03/28 15:26:16;;;;;;;35.65;19.95;;;6.60;99.90;;;;;;5091434;28;20028;-66
2021/03/28 15:28:48;;;;;;;37.92;21.75;;;6.70;99.90;;;;;;5091217;28;20032;-69
2021/03/28 15:31:35;;;;;;;38.83;21.17;;;7.00;99.90;;;;;;5091602;28;20020;-69
2021/03/28 15:34:08;;;;;;;40.97;21.88;;;6.90;99.90;;;;;;5092392;28;20054;-69
2021/03/28 15:37:05;;;;;;;33.45;18.73;;;6.80;99.90;;;;;;5091481;28;20078;-69
2021/03/28 15:39:37;;;;;;;32.47;18.85;;;6.70;99.90;;;;;;5091231;28;20034;-68
2021/03/28 15:42:16;;;;;;;30.85;18.10;;;6.60;99.90;;;;;;5091197;28;20028;-68
2021/03/28 15:45:00;;;;;;;32.90;18.88;;;6.60;99.90;;;;;;5091073;28;20081;-68
2021/03/28 15:47:52;;;;;;;29.55;17.05;;;6.50;99.90;;;;;;5091379;28;20040;-68
2021/03/28 15:50:30;;;;;;;27.60;15.68;;;6.50;99.90;;;;;;5093258;28;20016;-68
2021/03/28 15:53:18;;;;;;;17.10;7.43;;;6.50;99.90;;;;;;5094587;28;20481;-67
2021/03/28 15:55:50;;;;;;;24.40;12.93;;;6.60;99.90;;;;;;5094808;28;20051;-70
2021/03/28 15:58:40;;;;;;;22.88;12.57;;;8.20;99.90;;;;;;5094816;28;20032;-68
2021/03/28 16:01:27;;;;;;;21.05;11.60;;;7.90;99.90;;;;;;5094517;28;20035;-68
2021/03/28 16:04:14;;;;;;;16.67;9.40;;;7.80;99.90;;;;;;5095024;28;20024;-68
2021/03/28 16:07:07;;;;;;;15.80;9.88;;;7.40;99.90;;;;;;5094740;28;20032;-67
2021/03/28 16:09:42;;;;;;;14.38;9.10;;;7.10;99.90;;;;;;5094533;28;20024;-68
2021/03/28 16:12:55;;;;;;;14.80;9.95;;;6.90;99.90;;;;;;5094297;28;20039;-67
2021/03/28 16:15:35;;;;;;;13.70;8.45;;;6.70;99.90;;;;;;5031574;28;20030;-67
2021/03/28 16:18:26;;;;;;;14.23;8.10;;;6.50;99.90;;;;;;5087608;28;20056;-66
2021/03/28 16:21:16;;;;;;;14.40;8.30;;;6.40;99.90;;;;;;5094418;28;20471;-66
2021/03/28 16:24:00;;;;;;;13.25;7.45;;;6.40;99.90;;;;;;5093768;28;20016;-65
2021/03/28 16:27:03;;;;;;;12.07;7.82;;;6.30;99.90;;;;;;5094305;28;20070;-66
2021/03/28 16:30:05;;;;;;;13.73;7.70;;;6.20;99.90;;;;;;5094100;28;20426;-67
2021/03/28 16:32:52;;;;;;;13.95;8.52;;;6.20;99.90;;;;;;5094117;28;20028;-67
2021/03/28 16:35:48;;;;;;;12.60;7.05;;;6.20;99.90;;;;;;5093979;28;20032;-67
2021/03/28 16:38:48;;;;;;;11.43;7.50;;;6.10;99.90;;;;;;5093968;28;20032;-66
2021/03/28 16:41:29;;;;;;;10.50;6.32;;;6.00;99.90;;;;;;5094038;28;20020;-67
2021/03/28 16:44:12;;;;;;;8.90;5.53;;;5.90;99.90;;;;;;5094154;28;20024;-66
2021/03/28 16:46:49;;;;;;;7.75;5.32;;;5.80;99.90;;;;;;5094264;28;20552;-66
2021/03/28 16:49:28;;;;;;;10.43;5.68;;;5.80;99.90;;;;;;5093843;28;20039;-67
2021/03/28 16:52:02;;;;;;;8.65;5.55;;;5.80;99.90;;;;;;5094077;28;20017;-66
2021/03/28 16:54:36;;;;;;;9.23;5.05;;;5.80;99.90;;;;;;5094134;28;20039;-66
2021/03/28 16:57:02;;;;;;;8.48;4.88;;;5.70;99.90;;;;;;5094091;28;20020;-66
2021/03/28 16:59:49;;;;;;;6.75;4.60;;;5.70;99.90;;;;;;5093749;28;20054;-66
2021/03/28 17:02:24;;;;;;;5.38;3.78;;;5.70;99.90;;;;;;5093410;28;20078;-65
2021/03/28 17:05:16;;;;;;;7.03;4.18;;;5.70;99.90;;;;;;5075521;28;20418;-65
2021/03/28 17:08:05;;;;;;;4.60;3.63;;;5.70;99.90;;;;;;5086574;28;20115;-67
2021/03/28 17:10:42;;;;;;;5.13;3.42;;;5.60;99.90;;;;;;5093060;28;20035;-66
2021/03/28 17:13:23;;;;;;;4.75;3.03;;;5.60;99.90;;;;;;5091239;28;20495;-66
2021/03/28 17:15:49;;;;;;;;;;;5.60;99.90;;;;;;5093773;28;20048;-65
2021/03/28 17:18:17;;;;;;;6.22;2.22;;;5.60;99.90;;;;;;5093146;28;20371;-66
2021/03/28 17:21:08;;;;;;;3.97;2.50;;;5.60;99.90;;;;;;5093427;28;20424;-66
2021/03/28 17:23:59;;;;;;;4.93;1.90;;;5.50;99.90;;;;;;5093002;28;20065;-67
2021/03/28 17:26:43;;;;;;;2.13;1.50;;;5.50;99.90;;;;;;5093094;28;20031;-67
2021/03/28 17:29:34;;;;;;;4.07;1.58;;;5.50;99.90;;;;;;5092588;28;20024;-67
2021/03/28 17:32:16;;;;;;;5.43;1.23;;;5.50;99.90;;;;;;5092874;28;20032;-67
2021/03/28 17:34:48;;;;;;;2.00;0.95;;;5.40;99.90;;;;;;5092847;28;20036;-67
2021/03/28 17:37:34;;;;;;;2.75;1.48;;;5.40;99.90;;;;;;5092943;28;20460;-68
2021/03/28 17:40:06;;;;;;;2.50;1.20;;;5.40;99.90;;;;;;5092457;28;20048;-67
2021/03/28 17:42:32;;;;;;;1.08;0.80;;;5.50;99.90;;;;;;5092839;28;20028;-66
2021/03/28 17:45:06;;;;;;;2.78;1.13;;;5.40;99.90;;;;;;5092664;28;20388;-67
2021/03/28 17:47:55;;;;;;;1.85;1.00;;;5.30;99.90;;;;;;5092828;28;20020;-67
2021/03/28 17:50:29;;;;;;;3.55;1.10;;;5.30;99.90;;;;;;5092360;28;20025;-67
2021/03/28 17:53:18;;;;;;;3.97;0.90;;;5.30;99.90;;;;;;5092760;28;20414;-67
2021/03/28 17:56:01;;;;;;;2.45;0.77;;;5.30;99.90;;;;;;5092406;28;20039;-67
2021/03/28 17:58:48;;;;;;;1.98;0.80;;;5.20;99.90;;;;;;5092624;28;20101;-67
2021/03/28 18:01:13;;;;;;;3.70;1.08;;;5.20;99.90;;;;;;5092337;28;20024;-67
2021/03/28 18:03:42;;;;;;;2.83;0.90;;;5.20;99.90;;;;;;5092542;28;20387;-67
2021/03/28 18:06:10;;;;;;;3.40;0.95;;;5.20;99.90;;;;;;5091746;28;20035;-67
2021/03/28 18:08:44;;;;;;;3.63;1.23;;;5.20;99.90;;;;;;5091486;28;20036;-67
2021/03/28 18:11:18;;;;;;;275.52;113.43;;;5.80;99.90;;;;;;5071595;28;20131;-66
2021/03/28 18:13:43;;;;;;;323.88;113.32;;;5.70;99.90;;;;;;5071478;28;20625;-66
2021/03/28 18:16:18;;;;;;;215.07;96.30;;;5.60;99.90;;;;;;5072095;28;20036;-66
2021/03/28 18:18:52;;;;;;;64.80;30.65;;;5.50;99.90;;;;;;5071753;28;20025;-66